createdAt,value
2023-11-26T00:13:32.159Z,99.84
2023-11-26T00:43:35.825Z,99.92
2023-11-26T01:13:39.054Z,99.91
2023-11-26T01:43:42.355Z,99.53
2023-11-26T02:13:45.907Z,99.00
2023-11-26T02:43:49.478Z,98.53
2023-11-26T03:13:52.948Z,98.36
2023-11-26T03:43:56.423Z,97.79
2023-11-26T04:13:59.535Z,98.07
2023-11-26T04:44:02.567Z,97.41
2023-11-26T05:14:06.803Z,97.39
2023-11-26T05:44:09.771Z,97.59
2023-11-26T06:14:13.763Z,97.09
2023-11-26T06:44:16.640Z,97.46
2023-11-26T07:14:20.415Z,98.07
2023-11-26T07:44:23.377Z,98.28
2023-11-26T08:14:27.658Z,98.89
2023-11-26T08:44:30.566Z,98.81
2023-11-26T09:14:34.139Z,99.49
2023-11-26T09:44:36.970Z,98.83
2023-11-26T10:14:40.885Z,98.39
2023-11-26T10:44:43.817Z,97.79
2023-11-26T11:14:47.750Z,97.64
2023-11-26T11:44:50.863Z,96.98
2023-11-26T12:14:54.549Z,96.77
2023-11-26T12:44:57.552Z,95.76
2023-11-26T13:15:01.622Z,95.43
2023-11-26T13:45:10.566Z,94.62
2023-11-26T14:15:17.989Z,95.50
2023-11-26T14:45:20.945Z,95.33
2023-11-26T15:15:25.015Z,95.11
2023-11-26T15:45:28.142Z,96.14
2023-11-26T16:15:32.006Z,95.70
2023-11-26T16:45:35.111Z,95.33
2023-11-26T17:15:38.753Z,95.33
2023-11-26T17:45:41.947Z,95.24
2023-11-26T18:15:46.018Z,95.96
2023-11-26T18:45:49.187Z,95.93
2023-11-26T19:15:53.238Z,96.16
2023-11-26T19:45:56.343Z,95.43
2023-11-26T20:16:00.613Z,96.07
2023-11-26T20:46:04.058Z,95.00
2023-11-26T21:16:08.228Z,95.12
2023-11-26T21:46:11.428Z,94.90
2023-11-26T22:16:15.090Z,94.96
2023-11-26T22:46:19.021Z,94.72
2023-11-26T23:16:22.868Z,95.82
2023-11-26T23:46:25.950Z,96.16
